Time;durP1;ratioP1;P1;durP2;ratioP2;P2;SDS_P1;SDS_P2;PMS_P1;PMS_P2;Temp;Humidity;BMP_temperature;BMP_pressure;BME280_temperature;BME280_humidity;BME280_pressure;Samples;Min_cycle;Max_cycle;Signal;HPM_P1;HPM_P2
2022/12/06 00:01:31;;;;;;;;;;;20.30;63.20;;;;;;1549595;76;729;-72
2022/12/06 00:03:31;;;;;;;;;;;20.20;63.00;;;;;;1554985;76;1908;-72
2022/12/06 00:05:32;;;;;;;;;;;20.20;63.00;;;;;;1557220;75;1123;-70
2022/12/06 00:07:34;;;;;;;;;;;20.20;63.00;;;;;;1550119;75;720;-71
2022/12/06 00:09:36;;;;;;;;;;;20.20;63.10;;;;;;1552061;76;724;-71
2022/12/06 00:11:38;;;;;;;;;;;20.20;63.00;;;;;;1553350;76;633;-71
2022/12/06 00:13:40;;;;;;;;;;;20.30;63.20;;;;;;1554106;75;1458;-71
2022/12/06 00:15:42;;;;;;;;;;;20.20;63.10;;;;;;1548114;75;1127;-71
2022/12/06 00:17:44;;;;;;;;;;;20.20;63.10;;;;;;1550402;75;796;-70
2022/12/06 00:19:46;;;;;;;;;;;20.20;63.10;;;;;;1552197;76;740;-70
2022/12/06 00:21:48;;;;;;;;;;;20.30;63.20;;;;;;1549016;76;1926;-70
2022/12/06 00:23:50;;;;;;;;;;;20.30;63.20;;;;;;1544563;76;789;-71
2022/12/06 00:25:52;;;;;;;;;;;20.20;63.10;;;;;;1551191;75;728;-70
2022/12/06 00:27:54;;;;;;;;;;;20.20;63.10;;;;;;1549915;75;740;-70
2022/12/06 00:29:56;;;;;;;;;;;20.30;63.20;;;;;;1553091;75;803;-71
2022/12/06 00:31:58;;;;;;;;;;;20.20;63.10;;;;;;1548832;75;685;-71
2022/12/06 00:34:00;;;;;;;;;;;20.20;63.00;;;;;;1553011;76;1102;-71
2022/12/06 00:36:03;;;;;;;;;;;20.20;63.10;;;;;;1597589;73;689;-70
2022/12/06 00:38:04;;;;;;;;;;;20.20;63.10;;;;;;1597124;73;746;-69
2022/12/06 00:40:07;;;;;;;;;;;20.20;63.10;;;;;;1599933;73;721;-70
2022/12/06 00:42:09;;;;;;;;;;;20.30;63.20;;;;;;1603092;73;1932;-69
2022/12/06 00:44:11;;;;;;;;;;;20.20;63.10;;;;;;1594927;73;1177;-70
2022/12/06 00:46:16;;;;;;;;;;;20.20;63.10;;;;;;1599702;73;716;-70
2022/12/06 00:48:18;;;;;;;;;;;20.20;63.10;;;;;;1591457;73;764;-70
2022/12/06 00:50:20;;;;;;;;;;;20.20;63.10;;;;;;1596621;73;644;-73
2022/12/06 00:52:22;;;;;;;;;;;20.20;63.10;;;;;;1596755;73;708;-70
2022/12/06 00:54:24;;;;;;;;;;;20.20;63.30;;;;;;1598418;73;1123;-71
2022/12/06 00:56:26;;;;;;;;;;;20.20;63.40;;;;;;1599935;73;720;-71
2022/12/06 00:58:28;;;;;;;;;;;20.20;63.40;;;;;;1597183;73;776;-70
2022/12/06 01:00:30;;;;;;;;;;;20.20;63.40;;;;;;1604327;73;621;-72
2022/12/06 01:02:31;;;;;;;;;;;20.30;63.40;;;;;;1601668;73;1940;-71
2022/12/06 01:04:33;;;;;;;;;;;20.30;63.20;;;;;;1602903;73;1128;-71
2022/12/06 01:06:35;;;;;;;;;;;20.30;63.20;;;;;;1602621;73;645;-71
2022/12/06 01:08:37;;;;;;;;;;;20.30;63.10;;;;;;1604928;73;746;-71
2022/12/06 01:10:39;;;;;;;;;;;20.30;63.10;;;;;;1589545;73;1385;-70
2022/12/06 01:12:41;;;;;;;;;;;20.30;63.10;;;;;;1598923;73;647;-72
2022/12/06 01:14:43;;;;;;;;;;;20.40;63.00;;;;;;1600420;73;1152;-71
2022/12/06 01:16:45;;;;;;;;;;;20.30;63.00;;;;;;1600915;73;678;-71
2022/12/06 01:18:47;;;;;;;;;;;20.30;63.00;;;;;;1603596;73;688;-71
2022/12/06 01:20:48;;;;;;;;;;;20.30;62.90;;;;;;1601673;73;697;-72
2022/12/06 01:22:50;;;;;;;;;;;20.30;62.90;;;;;;1599121;73;1934;-70
2022/12/06 01:24:52;;;;;;;;;;;20.30;62.90;;;;;;1604815;73;1131;-71
2022/12/06 01:26:54;;;;;;;;;;;20.30;62.80;;;;;;1595890;73;687;-72
2022/12/06 01:28:56;;;;;;;;;;;20.30;62.80;;;;;;1598372;73;759;-70
2022/12/06 01:30:58;;;;;;;;;;;20.30;62.90;;;;;;1595698;73;623;-71
2022/12/06 01:33:00;;;;;;;;;;;20.20;62.90;;;;;;1604524;73;674;-70
2022/12/06 01:35:02;;;;;;;;;;;20.20;62.80;;;;;;1597307;73;1182;-70
2022/12/06 01:37:04;;;;;;;;;;;20.20;62.80;;;;;;1585203;73;609;-70
2022/12/06 01:39:09;;;;;;;;;;;20.30;62.90;;;;;;1590514;73;721;-70
2022/12/06 01:41:10;;;;;;;;;;;20.30;62.80;;;;;;1586810;73;1638;-71
2022/12/06 01:43:29;;;;;;;;;;;20.20;62.70;;;;;;1591949;73;1935;-71
2022/12/06 01:45:31;;;;;;;;;;;20.20;62.70;;;;;;1596308;73;1160;-73
2022/12/06 01:47:34;;;;;;;;;;;20.30;62.80;;;;;;1592508;73;632;-73
2022/12/06 01:49:36;;;;;;;;;;;20.20;62.80;;;;;;1595232;73;728;-70
2022/12/06 01:51:39;;;;;;;;;;;20.20;62.80;;;;;;1601743;73;905;-71
2022/12/06 01:53:41;;;;;;;;;;;20.20;62.90;;;;;;1596064;73;654;-70
2022/12/06 01:55:43;;;;;;;;;;;20.20;62.90;;;;;;1598425;73;1107;-69
2022/12/06 01:57:45;;;;;;;;;;;20.20;62.90;;;;;;1595851;73;895;-73
2022/12/06 01:59:46;;;;;;;;;;;20.20;62.90;;;;;;1599625;73;683;-73
2022/12/06 02:01:48;;;;;;;;;;;20.20;63.00;;;;;;1603376;72;710;-70
2022/12/06 02:03:50;;;;;;;;;;;20.20;62.90;;;;;;1604413;73;1942;-70
2022/12/06 02:05:52;;;;;;;;;;;20.20;63.00;;;;;;1614509;71;230300;-78
2022/12/06 02:07:54;;;;;;;;;;;20.20;63.10;;;;;;1611521;72;794;-77
2022/12/06 02:09:56;;;;;;;;;;;20.10;63.10;;;;;;1615946;72;724;-77
2022/12/06 02:11:58;;;;;;;;;;;20.10;63.20;;;;;;1612905;72;767;-77
2022/12/06 02:14:00;;;;;;;;;;;20.20;63.20;;;;;;1620156;72;709;-78
2022/12/06 02:16:12;;;;;;;;;;;20.20;63.30;;;;;;1622404;72;1146;-77
2022/12/06 02:18:19;;;;;;;;;;;20.10;63.40;;;;;;1624554;72;766;-77
2022/12/06 02:20:28;;;;;;;;;;;20.10;63.40;;;;;;1621691;72;1949;-77
2022/12/06 02:22:35;;;;;;;;;;;20.10;63.40;;;;;;1616490;72;1943;-76
2022/12/06 02:24:41;;;;;;;;;;;20.10;63.50;;;;;;1624092;72;1075;-76
2022/12/06 02:26:44;;;;;;;;;;;20.10;63.50;;;;;;1622971;72;1159;-74
2022/12/06 02:28:53;;;;;;;;;;;20.00;63.50;;;;;;1626911;72;730;-75
2022/12/06 02:31:10;;;;;;;;;;;20.10;63.60;;;;;;1621586;71;1076;-76
2022/12/06 02:33:16;;;;;;;;;;;20.10;63.60;;;;;;1622189;71;936;-77
2022/12/06 02:35:26;;;;;;;;;;;20.10;63.70;;;;;;1624527;72;1138;-77
2022/12/06 02:37:32;;;;;;;;;;;20.10;63.70;;;;;;1622361;72;766;-77
2022/12/06 02:39:39;;;;;;;;;;;20.00;63.70;;;;;;1620055;72;627;-78
2022/12/06 02:41:45;;;;;;;;;;;20.00;63.80;;;;;;1598085;72;1003;-78
2022/12/06 02:43:48;;;;;;;;;;;20.00;63.90;;;;;;1634624;71;1931;-78
2022/12/06 02:45:52;;;;;;;;;;;20.00;63.80;;;;;;1618800;72;1148;-76
2022/12/06 02:47:54;;;;;;;;;;;20.00;63.90;;;;;;1625788;72;718;-77
2022/12/06 02:49:56;;;;;;;;;;;20.00;63.90;;;;;;1625325;72;751;-77
2022/12/06 02:51:58;;;;;;;;;;;20.00;63.90;;;;;;1623404;72;698;-77
2022/12/06 02:54:01;;;;;;;;;;;20.00;63.90;;;;;;1622966;72;745;-77
2022/12/06 02:56:02;;;;;;;;;;;20.00;63.90;;;;;;1623427;71;1110;-77
2022/12/06 02:58:04;;;;;;;;;;;20.00;63.90;;;;;;1624531;71;901;-77
2022/12/06 03:00:24;;;;;;;;;;;20.00;64.00;;;;;;1622810;72;789;-77
2022/12/06 03:02:26;;;;;;;;;;;20.00;64.00;;;;;;1623244;72;1520;-76
2022/12/06 03:04:32;;;;;;;;;;;20.00;64.00;;;;;;1622301;71;1968;-73
2022/12/06 03:06:52;;;;;;;;;;;20.00;64.00;;;;;;1625701;72;766;-72
2022/12/06 03:09:08;;;;;;;;;;;20.00;64.00;;;;;;1625547;72;608;-77
2022/12/06 03:11:09;;;;;;;;;;;20.00;64.10;;;;;;1619566;72;568;-75
2022/12/06 03:13:31;;;;;;;;;;;20.00;64.10;;;;;;1624593;71;806;-77
2022/12/06 03:15:35;;;;;;;;;;;20.00;64.20;;;;;;1623288;71;1139;-76
2022/12/06 03:17:47;;;;;;;;;;;20.00;64.20;;;;;;1623017;71;1173;-77
2022/12/06 03:19:50;;;;;;;;;;;20.00;64.20;;;;;;1625105;72;805;-77
2022/12/06 03:22:00;;;;;;;;;;;19.90;64.20;;;;;;1620032;72;626;-77
2022/12/06 03:24:02;;;;;;;;;;;20.00;64.30;;;;;;1625295;72;1907;-77
2022/12/06 03:26:04;;;;;;;;;;;20.00;64.30;;;;;;1584747;73;1085;-73
2022/12/06 03:28:06;;;;;;;;;;;19.90;64.40;;;;;;1622522;72;721;-75
2022/12/06 03:30:09;;;;;;;;;;;19.90;64.50;;;;;;1623087;72;719;-77
2022/12/06 03:32:11;;;;;;;;;;;19.90;64.60;;;;;;1619174;72;789;-76
2022/12/06 03:34:17;;;;;;;;;;;19.90;64.70;;;;;;1618054;72;713;-77
2022/12/06 03:36:19;;;;;;;;;;;19.90;64.80;;;;;;1623221;71;798;-77
2022/12/06 03:38:25;;;;;;;;;;;19.80;64.80;;;;;;1622156;72;739;-76
2022/12/06 03:40:28;;;;;;;;;;;19.90;65.00;;;;;;1616385;72;681;-76
2022/12/06 03:42:30;;;;;;;;;;;19.80;64.90;;;;;;1613918;72;722;-75
2022/12/06 03:44:32;;;;;;;;;;;19.80;65.00;;;;;;1615490;71;1924;-77
2022/12/06 03:46:35;;;;;;;;;;;19.80;65.10;;;;;;1629124;72;776;-77
2022/12/06 03:48:38;;;;;;;;;;;19.90;65.20;;;;;;1621429;72;858;-77
2022/12/06 03:50:44;;;;;;;;;;;19.80;65.10;;;;;;1620400;71;1088;-79
2022/12/06 03:52:46;;;;;;;;;;;19.80;65.10;;;;;;1625752;71;725;-77
2022/12/06 03:54:48;;;;;;;;;;;19.80;65.20;;;;;;1620557;72;1107;-79
2022/12/06 03:56:50;;;;;;;;;;;19.80;65.20;;;;;;1625657;72;644;-80
2022/12/06 03:58:52;;;;;;;;;;;19.70;65.30;;;;;;1629171;71;1561;-78
2022/12/06 04:00:54;;;;;;;;;;;19.80;65.30;;;;;;1623756;72;805;-78
2022/12/06 04:02:56;;;;;;;;;;;19.80;65.30;;;;;;1627527;71;681;-79
2022/12/06 04:04:57;;;;;;;;;;;19.80;65.30;;;;;;1620980;72;1939;-76
2022/12/06 04:06:59;;;;;;;;;;;19.80;65.30;;;;;;1623445;71;749;-79
2022/12/06 04:11:05;;;;;;;;;;;19.80;65.20;;;;;;1573202;73;999;-77
2022/12/06 04:13:07;;;;;;;;;;;19.80;65.20;;;;;;1625908;72;659;-78
2022/12/06 04:15:10;;;;;;;;;;;19.80;65.20;;;;;;1627223;72;1138;-77
2022/12/06 04:19:31;;;;;;;;;;;19.80;65.20;;;;;;1627046;72;1735;-75
2022/12/06 04:23:37;;;;;;;;;;;19.80;65.20;;;;;;1620863;71;1916;-77
2022/12/06 04:25:39;;;;;;;;;;;19.80;65.20;;;;;;1623640;72;1122;-77
2022/12/06 04:39:20;;;;;;;;;;;19.80;65.20;;;;;;1622927;71;1660;-77
2022/12/06 04:43:42;;;;;;;;;;;19.80;65.20;;;;;;1622041;72;1917;-76
2022/12/06 04:45:44;;;;;;;;;;;19.80;65.30;;;;;;1618622;72;1170;-73
2022/12/06 04:47:46;;;;;;;;;;;19.80;65.40;;;;;;1626545;71;759;-78
2022/12/06 04:49:48;;;;;;;;;;;19.80;65.40;;;;;;1625072;72;636;-78
2022/12/06 04:51:51;;;;;;;;;;;19.80;65.40;;;;;;1626341;72;730;-76
2022/12/06 04:53:52;;;;;;;;;;;19.80;65.40;;;;;;1616387;71;744;-78
2022/12/06 04:55:54;;;;;;;;;;;19.80;65.40;;;;;;1621465;72;1450;-77
2022/12/06 04:57:56;;;;;;;;;;;19.80;65.30;;;;;;1624579;71;763;-79
2022/12/06 04:59:58;;;;;;;;;;;19.80;65.30;;;;;;1619697;71;666;-79
2022/12/06 05:02:00;;;;;;;;;;;19.80;65.30;;;;;;1624419;71;773;-78
2022/12/06 05:04:02;;;;;;;;;;;19.80;65.20;;;;;;1612366;71;1947;-78
2022/12/06 05:06:04;;;;;;;;;;;19.80;65.20;;;;;;1622720;71;1107;-78
2022/12/06 05:08:06;;;;;;;;;;;19.80;65.30;;;;;;1617074;72;687;-79
2022/12/06 05:10:08;;;;;;;;;;;19.80;65.20;;;;;;1622483;71;722;-77
2022/12/06 05:12:09;;;;;;;;;;;19.80;65.20;;;;;;1622064;72;691;-77
2022/12/06 05:14:11;;;;;;;;;;;19.90;65.20;;;;;;1625746;72;681;-77
2022/12/06 05:16:13;;;;;;;;;;;19.80;65.10;;;;;;1624310;72;1175;-79
2022/12/06 05:18:15;;;;;;;;;;;19.90;65.20;;;;;;1618194;72;732;-78
2022/12/06 05:20:17;;;;;;;;;;;19.90;65.20;;;;;;1623955;72;785;-78
2022/12/06 05:22:19;;;;;;;;;;;19.90;65.30;;;;;;1614434;71;703;-79
2022/12/06 05:24:21;;;;;;;;;;;19.90;65.30;;;;;;1624223;71;1919;-78
2022/12/06 05:26:23;;;;;;;;;;;19.90;65.20;;;;;;1629270;72;736;-78
2022/12/06 05:28:25;;;;;;;;;;;19.80;65.20;;;;;;1627249;72;753;-79
2022/12/06 05:30:27;;;;;;;;;;;19.80;65.10;;;;;;1626415;71;733;-78
2022/12/06 05:32:29;;;;;;;;;;;19.80;65.10;;;;;;1626176;71;660;-76
2022/12/06 05:34:31;;;;;;;;;;;19.80;65.10;;;;;;1627228;71;1143;-78
2022/12/06 05:36:33;;;;;;;;;;;19.90;65.20;;;;;;1624226;71;626;-74
2022/12/06 05:38:35;;;;;;;;;;;19.90;65.20;;;;;;1626662;71;790;-77
2022/12/06 05:40:38;;;;;;;;;;;19.80;65.10;;;;;;1632471;71;797;-78
2022/12/06 05:42:40;;;;;;;;;;;19.90;65.20;;;;;;1624738;72;705;-78
2022/12/06 05:44:42;;;;;;;;;;;19.90;65.10;;;;;;1624582;72;1952;-78
2022/12/06 05:46:44;;;;;;;;;;;19.90;65.10;;;;;;1622674;71;839;-78
2022/12/06 05:48:46;;;;;;;;;;;19.90;65.10;;;;;;1623909;71;666;-77
2022/12/06 05:50:48;;;;;;;;;;;19.90;65.20;;;;;;1616121;72;710;-77
2022/12/06 05:52:52;;;;;;;;;;;19.90;65.20;;;;;;1625965;72;1758;-77
2022/12/06 05:54:54;;;;;;;;;;;19.90;65.20;;;;;;1614312;71;1833;-77
2022/12/06 05:56:56;;;;;;;;;;;19.90;65.20;;;;;;1627191;72;727;-73
2022/12/06 05:58:58;;;;;;;;;;;19.90;65.40;;;;;;1623663;71;766;-72
2022/12/06 06:00:59;;;;;;;;;;;19.90;65.50;;;;;;1621333;71;765;-73
2022/12/06 06:03:01;;;;;;;;;;;19.90;65.90;;;;;;1627643;71;793;-70
2022/12/06 06:05:03;;;;;;;;;;;19.70;66.00;;;;;;1625303;72;1943;-78
2022/12/06 06:07:05;;;;;;;;;;;19.80;66.40;;;;;;1624962;71;815;-76
2022/12/06 06:09:07;;;;;;;;;;;19.70;66.40;;;;;;1625829;71;820;-77
2022/12/06 06:11:09;;;;;;;;;;;19.70;66.40;;;;;;1625309;71;751;-78
2022/12/06 06:13:11;;;;;;;;;;;19.70;66.40;;;;;;1615576;71;794;-78
2022/12/06 06:15:13;;;;;;;;;;;19.70;66.40;;;;;;1614646;71;1166;-77
2022/12/06 06:17:15;;;;;;;;;;;19.70;66.50;;;;;;1621221;72;745;-74
2022/12/06 06:19:18;;;;;;;;;;;19.70;66.40;;;;;;1624167;72;769;-75
2022/12/06 06:21:20;;;;;;;;;;;19.70;66.40;;;;;;1620025;72;802;-75
2022/12/06 06:23:23;;;;;;;;;;;19.70;66.40;;;;;;1622423;71;575;-75
2022/12/06 06:25:24;;;;;;;;;;;19.70;66.40;;;;;;1633329;71;1906;-75
2022/12/06 06:27:26;;;;;;;;;;;19.70;66.30;;;;;;1618976;71;802;-70
2022/12/06 06:29:28;;;;;;;;;;;19.70;66.20;;;;;;1618511;72;724;-74
2022/12/06 06:31:30;;;;;;;;;;;19.80;66.10;;;;;;1618832;72;810;-75
2022/12/06 06:33:32;;;;;;;;;;;19.70;66.10;;;;;;1618757;71;751;-72
2022/12/06 06:35:34;;;;;;;;;;;19.80;66.30;;;;;;1614312;71;1142;-77
2022/12/06 06:37:36;;;;;;;;;;;19.70;66.50;;;;;;1623368;71;747;-76
2022/12/06 06:39:38;;;;;;;;;;;19.70;66.40;;;;;;1620146;71;681;-78
2022/12/06 06:41:40;;;;;;;;;;;19.70;66.40;;;;;;1617180;71;704;-77
2022/12/06 06:43:41;;;;;;;;;;;19.70;66.50;;;;;;1615118;71;755;-75
2022/12/06 06:45:53;;;;;;;;;;;19.70;66.50;;;;;;1635172;71;1937;-74
2022/12/06 06:47:55;;;;;;;;;;;19.80;66.50;;;;;;1620172;72;1579;-74
2022/12/06 06:49:57;;;;;;;;;;;19.70;67.00;;;;;;1625877;72;806;-74
2022/12/06 06:51:59;;;;;;;;;;;19.80;66.70;;;;;;1616936;71;693;-76
2022/12/06 06:54:01;;;;;;;;;;;19.80;66.70;;;;;;1622434;72;740;-78
2022/12/06 06:56:03;;;;;;;;;;;19.90;66.80;;;;;;1625294;72;1081;-77
2022/12/06 06:58:05;;;;;;;;;;;19.80;66.60;;;;;;1624055;71;780;-79
2022/12/06 07:00:07;;;;;;;;;;;19.80;66.80;;;;;;1620812;71;717;-77
2022/12/06 07:02:10;;;;;;;;;;;19.90;66.80;;;;;;1622432;71;721;-76
2022/12/06 07:04:12;;;;;;;;;;;19.90;66.60;;;;;;1621570;71;1923;-78
2022/12/06 07:06:14;;;;;;;;;;;20.00;66.40;;;;;;1615513;72;1127;-78
2022/12/06 07:08:16;;;;;;;;;;;20.00;66.20;;;;;;1629600;71;804;-77
2022/12/06 07:10:18;;;;;;;;;;;20.00;66.00;;;;;;1616338;72;704;-77
2022/12/06 07:12:20;;;;;;;;;;;20.10;65.80;;;;;;1624798;71;797;-77
2022/12/06 07:14:22;;;;;;;;;;;20.10;65.80;;;;;;1623277;71;1173;-78
2022/12/06 07:16:23;;;;;;;;;;;20.10;65.60;;;;;;1621969;71;757;-78
2022/12/06 07:18:25;;;;;;;;;;;20.10;65.40;;;;;;1620142;73;730;-78
2022/12/06 07:20:27;;;;;;;;;;;20.10;65.30;;;;;;1623611;71;794;-78
2022/12/06 07:22:29;;;;;;;;;;;20.10;65.30;;;;;;1622025;71;650;-74
2022/12/06 07:24:31;;;;;;;;;;;20.20;65.20;;;;;;1624558;71;1929;-76
2022/12/06 07:26:33;;;;;;;;;;;20.20;65.00;;;;;;1610965;71;711;-76
2022/12/06 07:28:35;;;;;;;;;;;20.20;65.00;;;;;;1615039;71;720;-76
2022/12/06 07:30:37;;;;;;;;;;;20.30;64.90;;;;;;1615905;71;774;-77
2022/12/06 07:32:39;;;;;;;;;;;20.30;64.80;;;;;;1615839;71;705;-76
2022/12/06 07:34:41;;;;;;;;;;;20.30;64.80;;;;;;1613767;71;1139;-77
2022/12/06 07:36:43;;;;;;;;;;;20.20;64.60;;;;;;1617899;71;616;-77
2022/12/06 07:38:48;;;;;;;;;;;20.30;64.70;;;;;;1620468;71;651;-76
2022/12/06 07:40:50;;;;;;;;;;;20.30;64.50;;;;;;1621918;72;728;-77
2022/12/06 07:45:12;;;;;;;;;;;20.40;64.50;;;;;;1609354;72;1944;-78
2022/12/06 07:47:14;;;;;;;;;;;20.30;64.50;;;;;;1622585;72;780;-78
2022/12/06 07:49:17;;;;;;;;;;;20.30;64.40;;;;;;1620792;72;742;-76
2022/12/06 07:51:18;;;;;;;;;;;20.30;64.30;;;;;;1632538;71;771;-76
2022/12/06 07:53:21;;;;;;;;;;;20.30;64.30;;;;;;1622607;71;712;-77
2022/12/06 07:55:23;;;;;;;;;;;20.30;64.20;;;;;;1619456;71;1201;-77
2022/12/06 07:57:24;;;;;;;;;;;20.30;64.20;;;;;;1620295;71;735;-76
2022/12/06 07:59:26;;;;;;;;;;;20.30;64.20;;;;;;1614895;71;725;-76
2022/12/06 08:01:28;;;;;;;;;;;20.30;64.20;;;;;;1621998;72;703;-76
2022/12/06 08:03:30;;;;;;;;;;;20.40;64.10;;;;;;1613537;72;732;-77
2022/12/06 08:05:32;;;;;;;;;;;20.40;64.00;;;;;;1596289;71;233023;-72
2022/12/06 08:07:34;;;;;;;;;;;20.30;64.00;;;;;;1574366;74;713;-72
2022/12/06 08:09:36;;;;;;;;;;;20.40;64.10;;;;;;1582494;74;713;-72
2022/12/06 08:11:37;;;;;;;;;;;20.30;64.00;;;;;;1564484;74;714;-71
2022/12/06 08:13:39;;;;;;;;;;;20.40;64.00;;;;;;1579001;74;716;-71
2022/12/06 08:15:41;;;;;;;;;;;20.40;63.90;;;;;;1578280;74;1186;-72
2022/12/06 08:17:44;;;;;;;;;;;20.40;63.80;;;;;;1573045;74;631;-72
2022/12/06 08:19:46;;;;;;;;;;;20.50;63.90;;;;;;1575365;74;735;-72
2022/12/06 08:21:47;;;;;;;;;;;20.50;63.70;;;;;;1577580;74;715;-73
2022/12/06 08:23:49;;;;;;;;;;;20.50;63.80;;;;;;1566043;74;745;-70
2022/12/06 08:25:58;;;;;;;;;;;20.40;63.70;;;;;;1563556;74;1920;-71
2022/12/06 08:27:59;;;;;;;;;;;20.40;63.60;;;;;;1571711;74;771;-69
2022/12/06 08:30:01;;;;;;;;;;;20.40;63.70;;;;;;1571002;74;702;-70
2022/12/06 08:32:03;;;;;;;;;;;20.40;63.70;;;;;;1574460;74;743;-73
2022/12/06 08:34:05;;;;;;;;;;;20.40;63.70;;;;;;1569891;74;679;-71
2022/12/06 08:36:08;;;;;;;;;;;20.40;63.70;;;;;;1568367;74;1118;-73
2022/12/06 08:38:10;;;;;;;;;;;20.40;63.80;;;;;;1571698;74;711;-73
2022/12/06 08:40:12;;;;;;;;;;;20.40;63.80;;;;;;1570165;74;1508;-73
2022/12/06 08:42:13;;;;;;;;;;;20.40;63.80;;;;;;1571942;74;699;-75
2022/12/06 08:44:17;;;;;;;;;;;20.40;63.80;;;;;;1578304;75;730;-75
2022/12/06 08:46:19;;;;;;;;;;;20.30;63.80;;;;;;1568093;74;1916;-74
2022/12/06 08:48:21;;;;;;;;;;;20.30;63.90;;;;;;1576083;74;653;-71
2022/12/06 08:50:23;;;;;;;;;;;20.30;63.90;;;;;;1569508;74;664;-71
2022/12/06 08:52:25;;;;;;;;;;;20.30;63.90;;;;;;1571886;74;710;-73
2022/12/06 08:54:27;;;;;;;;;;;20.30;63.90;;;;;;1571792;74;744;-72
2022/12/06 08:56:28;;;;;;;;;;;20.30;64.00;;;;;;1575145;74;1207;-72
2022/12/06 08:58:30;;;;;;;;;;;20.30;63.90;;;;;;1569933;74;709;-71
2022/12/06 09:00:32;;;;;;;;;;;20.20;63.90;;;;;;1573972;74;852;-72
2022/12/06 09:02:34;;;;;;;;;;;20.20;63.90;;;;;;1576770;75;656;-72
2022/12/06 09:04:36;;;;;;;;;;;20.30;64.00;;;;;;1573226;75;717;-72
2022/12/06 09:06:38;;;;;;;;;;;20.30;64.00;;;;;;1583467;75;1945;-72
2022/12/06 09:08:40;;;;;;;;;;;20.20;63.90;;;;;;1585030;75;702;-72
2022/12/06 09:10:42;;;;;;;;;;;20.20;64.00;;;;;;1585864;75;704;-72
2022/12/06 09:12:44;;;;;;;;;;;20.20;63.90;;;;;;1582217;73;779;-73
2022/12/06 09:14:46;;;;;;;;;;;20.20;64.00;;;;;;1582177;75;1144;-72
2022/12/06 09:16:48;;;;;;;;;;;20.30;64.10;;;;;;1585284;75;682;-73
2022/12/06 09:18:50;;;;;;;;;;;20.20;64.00;;;;;;1579970;75;777;-73
2022/12/06 09:20:52;;;;;;;;;;;20.20;63.90;;;;;;1579039;75;823;-73
2022/12/06 09:22:54;;;;;;;;;;;20.20;64.00;;;;;;1580388;75;731;-71
2022/12/06 09:24:56;;;;;;;;;;;20.20;63.90;;;;;;1587524;75;1953;-71
2022/12/06 09:26:57;;;;;;;;;;;20.20;63.90;;;;;;1582790;74;681;-72
2022/12/06 09:28:59;;;;;;;;;;;20.20;63.90;;;;;;1579644;74;765;-71
2022/12/06 09:31:01;;;;;;;;;;;20.20;64.50;;;;;;1576383;73;560;-71
2022/12/06 09:33:03;;;;;;;;;;;20.20;65.50;;;;;;1573076;73;748;-73
2022/12/06 09:35:05;;;;;;;;;;;20.30;66.20;;;;;;1578382;75;1172;-72
2022/12/06 09:37:08;;;;;;;;;;;20.30;66.50;;;;;;1576077;75;1459;-72
2022/12/06 09:39:15;;;;;;;;;;;20.30;67.00;;;;;;1583074;75;797;-72
2022/12/06 09:41:24;;;;;;;;;;;20.30;67.20;;;;;;1579599;75;625;-74
2022/12/06 09:43:27;;;;;;;;;;;20.30;67.30;;;;;;1577994;75;1073;-74
2022/12/06 09:45:34;;;;;;;;;;;20.30;67.90;;;;;;1576260;73;1938;-73
2022/12/06 09:47:40;;;;;;;;;;;20.40;67.80;;;;;;1575638;73;760;-72
2022/12/06 09:49:44;;;;;;;;;;;20.30;67.80;;;;;;1572693;73;547;-73
2022/12/06 09:51:56;;;;;;;;;;;20.40;67.60;;;;;;1576550;73;975;-73
2022/12/06 09:54:09;;;;;;;;;;;20.30;67.60;;;;;;1579301;73;1186;-72
2022/12/06 09:56:12;;;;;;;;;;;20.40;67.50;;;;;;1568635;74;1184;-73
2022/12/06 09:58:25;;;;;;;;;;;20.30;67.40;;;;;;1572465;75;892;-74
2022/12/06 10:00:27;;;;;;;;;;;20.40;67.40;;;;;;1574015;73;1120;-73
2022/12/06 10:02:30;;;;;;;;;;;20.40;67.40;;;;;;1572987;74;712;-72
2022/12/06 10:04:36;;;;;;;;;;;20.40;67.30;;;;;;1582776;75;1107;-73
2022/12/06 10:06:39;;;;;;;;;;;20.40;67.40;;;;;;1578969;75;1922;-72
2022/12/06 10:08:42;;;;;;;;;;;20.30;67.50;;;;;;1565904;75;1015;-72
2022/12/06 10:10:55;;;;;;;;;;;20.30;67.40;;;;;;1559990;75;1360;-75
2022/12/06 10:12:59;;;;;;;;;;;20.40;67.40;;;;;;1553550;75;1060;-72
2022/12/06 10:15:06;;;;;;;;;;;20.40;67.40;;;;;;1576896;75;1454;-74
2022/12/06 10:17:18;;;;;;;;;;;20.30;67.40;;;;;;1574729;75;719;-75
2022/12/06 10:19:38;;;;;;;;;;;20.30;67.40;;;;;;1563837;74;1091;-72
2022/12/06 10:21:54;;;;;;;;;;;20.40;67.30;;;;;;1578592;75;613;-70
2022/12/06 10:23:58;;;;;;;;;;;20.30;67.20;;;;;;1576423;74;1098;-72
2022/12/06 10:26:04;;;;;;;;;;;20.30;67.20;;;;;;1579478;75;1941;-72
2022/12/06 10:28:16;;;;;;;;;;;20.30;67.20;;;;;;1550226;75;1043;-71
2022/12/06 10:30:18;;;;;;;;;;;20.40;67.20;;;;;;1572683;74;1639;-71
2022/12/06 10:32:31;;;;;;;;;;;20.30;67.10;;;;;;1577017;74;1480;-73
2022/12/06 10:34:41;;;;;;;;;;;20.40;67.10;;;;;;1569289;74;1132;-71
2022/12/06 10:36:44;;;;;;;;;;;20.30;67.10;;;;;;1574908;75;1589;-71
2022/12/06 10:38:51;;;;;;;;;;;20.30;67.10;;;;;;1564938;75;564;-68
2022/12/06 10:40:57;;;;;;;;;;;20.30;67.10;;;;;;1573879;75;726;-73
2022/12/06 10:43:00;;;;;;;;;;;20.30;67.00;;;;;;1563480;74;1080;-70
2022/12/06 10:47:02;;;;;;;;;;;20.20;66.90;;;;;;1518621;75;1232;-74
2022/12/06 10:47:07;;;;;;;;;;;20.20;67.00;;;;;;1562897;74;1944;-70
2022/12/06 10:49:17;;;;;;;;;;;20.20;66.90;;;;;;1574856;74;686;-72
2022/12/06 10:51:20;;;;;;;;;;;20.30;66.90;;;;;;1573124;74;1019;-71
2022/12/06 10:53:23;;;;;;;;;;;20.30;66.90;;;;;;1570080;75;627;-71
2022/12/06 10:55:29;;;;;;;;;;;20.20;66.80;;;;;;1577107;75;1192;-70
2022/12/06 10:57:39;;;;;;;;;;;20.30;66.80;;;;;;1575967;75;704;-69
2022/12/06 10:59:42;;;;;;;;;;;20.20;66.70;;;;;;1570180;74;674;-71
2022/12/06 11:01:44;;;;;;;;;;;20.30;65.60;;;;;;1578975;75;1007;-72
2022/12/06 11:04:03;;;;;;;;;;;20.20;64.10;;;;;;1574667;74;713;-69
2022/12/06 11:06:09;;;;;;;;;;;20.20;64.30;;;;;;1574394;75;1941;-70
2022/12/06 11:08:13;;;;;;;;;;;20.20;64.60;;;;;;1577837;75;791;-69
2022/12/06 11:10:16;;;;;;;;;;;20.20;64.80;;;;;;1568207;74;763;-72
2022/12/06 11:12:20;;;;;;;;;;;20.20;64.90;;;;;;1568918;74;1076;-74
2022/12/06 11:14:40;;;;;;;;;;;20.20;65.00;;;;;;1567886;75;886;-71
2022/12/06 11:16:46;;;;;;;;;;;20.20;65.00;;;;;;1579941;74;730;-69
2022/12/06 11:18:48;;;;;;;;;;;20.20;65.00;;;;;;1575437;74;1057;-69
2022/12/06 11:20:55;;;;;;;;;;;20.10;65.00;;;;;;1577157;75;729;-70
2022/12/06 11:23:05;;;;;;;;;;;20.20;65.10;;;;;;1573346;74;690;-69
2022/12/06 11:25:15;;;;;;;;;;;20.20;65.10;;;;;;1575747;75;1116;-68
2022/12/06 11:27:22;;;;;;;;;;;20.10;65.10;;;;;;1571603;74;1938;-71
2022/12/06 11:29:24;;;;;;;;;;;20.10;65.30;;;;;;1574103;74;1556;-71
2022/12/06 11:31:27;;;;;;;;;;;20.20;65.40;;;;;;1576548;75;766;-71
2022/12/06 11:33:30;;;;;;;;;;;20.20;65.40;;;;;;1576434;74;725;-70
2022/12/06 11:35:32;;;;;;;;;;;20.10;65.40;;;;;;1573866;75;1129;-73
2022/12/06 11:37:34;;;;;;;;;;;20.10;65.70;;;;;;1570410;75;789;-67
2022/12/06 11:39:36;;;;;;;;;;;20.20;65.70;;;;;;1543140;75;706;-72
2022/12/06 11:41:38;;;;;;;;;;;20.20;65.60;;;;;;1573753;74;757;-70
2022/12/06 11:43:40;;;;;;;;;;;20.20;65.80;;;;;;1577501;74;709;-69
2022/12/06 11:45:44;;;;;;;;;;;20.30;65.90;;;;;;1570471;74;1959;-70
2022/12/06 11:47:45;;;;;;;;;;;20.20;65.70;;;;;;1576765;74;1555;-73
2022/12/06 11:49:47;;;;;;;;;;;20.20;65.70;;;;;;1575550;75;732;-71
2022/12/06 11:51:49;;;;;;;;;;;20.30;65.90;;;;;;1576687;74;690;-77
2022/12/06 11:53:52;;;;;;;;;;;20.30;65.80;;;;;;1562033;74;651;-73
2022/12/06 11:55:55;;;;;;;;;;;20.20;65.60;;;;;;1579574;75;1189;-74
2022/12/06 11:58:10;;;;;;;;;;;20.20;65.60;;;;;;1573391;74;718;-74
2022/12/06 12:00:14;;;;;;;;;;;20.20;65.30;;;;;;1562913;74;1042;-74
2022/12/06 12:02:24;;;;;;;;;;;20.10;65.60;;;;;;1569931;74;825;-76
2022/12/06 12:04:41;;;;;;;;;;;20.20;65.70;;;;;;1562379;75;990;-75
2022/12/06 12:06:43;;;;;;;;;;;20.10;65.80;;;;;;1577646;75;1929;-72
2022/12/06 12:09:01;;;;;;;;;;;20.10;65.80;;;;;;1574788;74;795;-75
2022/12/06 12:11:03;;;;;;;;;;;20.10;65.80;;;;;;1574964;74;724;-75
2022/12/06 12:15:26;;;;;;;;;;;20.10;65.90;;;;;;1574887;75;1978;-74
2022/12/06 12:17:30;;;;;;;;;;;20.10;65.80;;;;;;1571736;75;693;-75
2022/12/06 12:19:33;;;;;;;;;;;20.10;65.80;;;;;;1570960;75;635;-75
2022/12/06 12:21:36;;;;;;;;;;;20.10;65.90;;;;;;1573597;74;1900;-72
2022/12/06 12:23:43;;;;;;;;;;;20.10;65.80;;;;;;1568191;75;727;-75
2022/12/06 12:25:46;;;;;;;;;;;20.10;65.90;;;;;;1572685;75;1432;-73
2022/12/06 12:27:49;;;;;;;;;;;20.10;65.80;;;;;;1577023;75;1939;-74
2022/12/06 12:29:52;;;;;;;;;;;20.10;65.80;;;;;;1569738;74;769;-75
2022/12/06 12:31:56;;;;;;;;;;;20.10;65.90;;;;;;1551020;75;1350;-72
2022/12/06 12:34:13;;;;;;;;;;;20.00;65.70;;;;;;1573315;75;918;-72
2022/12/06 12:36:17;;;;;;;;;;;20.10;65.80;;;;;;1578020;75;1157;-73
2022/12/06 12:38:26;;;;;;;;;;;20.10;65.60;;;;;;1573073;75;1095;-75
2022/12/06 12:40:39;;;;;;;;;;;20.10;65.60;;;;;;1575209;75;1110;-74
2022/12/06 12:42:41;;;;;;;;;;;20.10;65.60;;;;;;1579798;75;763;-74